Pagrindinis puslapis
METAR-TAF:

METAR-TAF

Oro uostai :

Madridas-Cuatro Vientos, Ispanija

platuma: 40-23N, ilguma: 003-47W, Aukštis: 690 m

Dabartinis oras

Ataskaita buvo paskelbta 38 minutes, ne 22:00 UTC
Vėjas 3 kt iš Pietryčių
Temperatūra 17°C
Drėgmė 55%
Slėgis 1021 hPa
Matomumas 10 km arba daugiau
nėra debesų žemiau 1500 m ir nėra kamuolinių lietaus debesų

METAR: LEVS 152200Z AUTO 13003KT CAVOK 17/08 Q1021

Laikas: 00:38 (22:38 UTC)

Prognozė

Ataskaita buvo paskelbta 5 valandos ir 38 minutes, ne 17:00 UTC
Prognozė galioja nuo 15 metu 18 UTC su 16 metu 18 UTC
Vėjas 8 kt iš Šiaurės/Šiaurės Vakarų
Matomumas 10 km arba daugiau
nėra debesų žemiau 1500 m ir nėra kamuolinių lietaus debesų

TAF: LEVS 151700Z 1518/1618 34008KT CAVOK TX26/1614Z TN12/1606Z

Orai ataskaitas ir orų prognozės (METAR, TAF).

turimą stotys yra geltonos ir raudonos taškus žemėlapyje.

Perkelti pele per norėdami pamatyti stoties vardą.

Tada spustelėkite, norėdami matyti oro stebėjimo ir prognozės.

Norėdami pakeisti žemėlapį: spustelėkite ant žalios mygtukų su juodo kryžiaus žemyn,; žalią mygtuką su brūkšneliu, jei norite nutolinti; arba žalių rodyklių gretimoms žemėlapius.


METAR-TAF: